Webcam Flughafen St.Gallen-Altenrhein

Live-Bilder und Zeitraffer LSZR / ACH.

 

Live aus Altenrhein
LIVE
LSZR 212220Z AUTO 25003KT 200V300 9999 OVC050 13/10 Q1023
Zeitraffer heute
2018-09-22 00:00:00
LSZR 212150Z AUTO VRB02KT 9999 -RA OVC050 13/10 Q1022
Zeitraffer gestern
2018-09-21 00:14:51
LSZR 202150Z AUTO VRB01KT CAVOK 15/13 Q1017
Zeitraffer vor 3 Tagen
2018-09-19 00:14:13
LSZR 182150Z AUTO 31006KT 9999 BKN130 SCT150 //////TCU 19/14 Q1021